sensor_id;sensor_type;location;lat;lon;timestamp;temperature;humidity
20398;DHT22;10358;49.590;11.030;2023-04-24T00:01:49;11.90;99.90
20398;DHT22;10358;49.590;11.030;2023-04-24T00:04:15;11.90;99.90
20398;DHT22;10358;49.590;11.030;2023-04-24T00:06:42;11.90;99.90
20398;DHT22;10358;49.590;11.030;2023-04-24T00:09:09;11.80;99.90
20398;DHT22;10358;49.590;11.030;2023-04-24T00:11:38;11.90;99.90
20398;DHT22;10358;49.590;11.030;2023-04-24T00:14:03;11.80;99.90
20398;DHT22;10358;49.590;11.030;2023-04-24T00:16:29;11.80;99.90
20398;DHT22;10358;49.590;11.030;2023-04-24T00:18:55;11.80;99.90
20398;DHT22;10358;49.590;11.030;2023-04-24T00:21:20;11.80;99.90
20398;DHT22;10358;49.590;11.030;2023-04-24T00:23:47;11.70;99.90
20398;DHT22;10358;49.590;11.030;2023-04-24T00:26:13;11.60;99.90
20398;DHT22;10358;49.590;11.030;2023-04-24T00:28:39;11.70;99.90
20398;DHT22;10358;49.590;11.030;2023-04-24T00:31:05;11.60;99.90
20398;DHT22;10358;49.590;11.030;2023-04-24T00:33:30;11.70;99.90
20398;DHT22;10358;49.590;11.030;2023-04-24T00:35:56;11.70;99.90
20398;DHT22;10358;49.590;11.030;2023-04-24T00:38:21;11.70;99.90
20398;DHT22;10358;49.590;11.030;2023-04-24T00:40:48;11.70;99.90
20398;DHT22;10358;49.590;11.030;2023-04-24T00:43:15;11.70;99.90
20398;DHT22;10358;49.590;11.030;2023-04-24T00:45:40;11.70;99.90
20398;DHT22;10358;49.590;11.030;2023-04-24T00:48:06;11.60;99.90
20398;DHT22;10358;49.590;11.030;2023-04-24T00:50:32;11.60;99.90
20398;DHT22;10358;49.590;11.030;2023-04-24T00:52:58;11.60;99.90
20398;DHT22;10358;49.590;11.030;2023-04-24T00:55:24;11.50;99.90
20398;DHT22;10358;49.590;11.030;2023-04-24T00:57:50;11.50;99.90
20398;DHT22;10358;49.590;11.030;2023-04-24T01:00:16;11.40;99.90
20398;DHT22;10358;49.590;11.030;2023-04-24T01:02:44;11.50;99.90
20398;DHT22;10358;49.590;11.030;2023-04-24T01:05:14;11.50;99.90
20398;DHT22;10358;49.590;11.030;2023-04-24T01:07:43;11.40;99.90
20398;DHT22;10358;49.590;11.030;2023-04-24T01:10:11;11.50;99.90
20398;DHT22;10358;49.590;11.030;2023-04-24T01:12:37;11.50;99.90
20398;DHT22;10358;49.590;11.030;2023-04-24T01:15:03;11.40;99.90
20398;DHT22;10358;49.590;11.030;2023-04-24T01:17:29;11.50;99.90
20398;DHT22;10358;49.590;11.030;2023-04-24T01:19:56;11.40;99.90
20398;DHT22;10358;49.590;11.030;2023-04-24T01:22:22;11.40;99.90
20398;DHT22;10358;49.590;11.030;2023-04-24T01:24:48;11.40;99.90
20398;DHT22;10358;49.590;11.030;2023-04-24T01:27:14;11.40;99.90
20398;DHT22;10358;49.590;11.030;2023-04-24T01:29:40;11.40;99.90
20398;DHT22;10358;49.590;11.030;2023-04-24T01:32:06;11.40;99.90
20398;DHT22;10358;49.590;11.030;2023-04-24T01:34:32;11.50;99.90
20398;DHT22;10358;49.590;11.030;2023-04-24T01:36:58;11.50;99.90
20398;DHT22;10358;49.590;11.030;2023-04-24T01:39:23;11.50;99.90
20398;DHT22;10358;49.590;11.030;2023-04-24T01:41:51;11.50;99.90
20398;DHT22;10358;49.590;11.030;2023-04-24T01:44:17;11.60;99.90
20398;DHT22;10358;49.590;11.030;2023-04-24T01:46:43;11.60;99.90
20398;DHT22;10358;49.590;11.030;2023-04-24T01:49:09;11.60;99.90
20398;DHT22;10358;49.590;11.030;2023-04-24T01:51:34;11.60;99.90
20398;DHT22;10358;49.590;11.030;2023-04-24T01:54:00;11.60;99.90
20398;DHT22;10358;49.590;11.030;2023-04-24T01:56:25;11.60;99.90
20398;DHT22;10358;49.590;11.030;2023-04-24T01:58:54;11.60;99.90
20398;DHT22;10358;49.590;11.030;2023-04-24T02:01:20;11.60;99.90
20398;DHT22;10358;49.590;11.030;2023-04-24T02:03:46;11.60;99.90
20398;DHT22;10358;49.590;11.030;2023-04-24T02:06:11;11.60;99.90
20398;DHT22;10358;49.590;11.030;2023-04-24T02:08:37;11.60;99.90
20398;DHT22;10358;49.590;11.030;2023-04-24T02:11:03;11.70;99.90
20398;DHT22;10358;49.590;11.030;2023-04-24T02:13:28;11.60;99.90
20398;DHT22;10358;49.590;11.030;2023-04-24T02:15:54;11.70;99.90
20398;DHT22;10358;49.590;11.030;2023-04-24T02:18:19;11.70;99.90
20398;DHT22;10358;49.590;11.030;2023-04-24T02:20:46;11.70;99.90
20398;DHT22;10358;49.590;11.030;2023-04-24T02:23:11;11.60;99.90
20398;DHT22;10358;49.590;11.030;2023-04-24T02:25:38;11.60;99.90
20398;DHT22;10358;49.590;11.030;2023-04-24T02:28:04;11.50;99.90
20398;DHT22;10358;49.590;11.030;2023-04-24T02:30:29;11.50;99.90
20398;DHT22;10358;49.590;11.030;2023-04-24T02:32:55;11.50;99.90
20398;DHT22;10358;49.590;11.030;2023-04-24T02:35:20;11.50;99.90
20398;DHT22;10358;49.590;11.030;2023-04-24T02:37:46;11.50;99.90
20398;DHT22;10358;49.590;11.030;2023-04-24T02:40:11;11.50;99.90
20398;DHT22;10358;49.590;11.030;2023-04-24T02:42:37;11.40;99.90
20398;DHT22;10358;49.590;11.030;2023-04-24T02:45:03;11.40;99.90
20398;DHT22;10358;49.590;11.030;2023-04-24T02:47:28;11.50;99.90
20398;DHT22;10358;49.590;11.030;2023-04-24T02:49:54;11.40;99.90
20398;DHT22;10358;49.590;11.030;2023-04-24T02:52:20;11.40;99.90
20398;DHT22;10358;49.590;11.030;2023-04-24T02:54:45;11.40;99.90
20398;DHT22;10358;49.590;11.030;2023-04-24T02:57:11;11.50;99.90
20398;DHT22;10358;49.590;11.030;2023-04-24T02:59:36;11.40;99.90
20398;DHT22;10358;49.590;11.030;2023-04-24T03:02:02;11.30;99.90
20398;DHT22;10358;49.590;11.030;2023-04-24T03:04:28;11.30;99.90
20398;DHT22;10358;49.590;11.030;2023-04-24T03:06:53;11.30;99.90
20398;DHT22;10358;49.590;11.030;2023-04-24T03:09:20;11.30;99.90
20398;DHT22;10358;49.590;11.030;2023-04-24T03:11:46;11.30;99.90
20398;DHT22;10358;49.590;11.030;2023-04-24T03:14:12;11.30;99.90
20398;DHT22;10358;49.590;11.030;2023-04-24T03:16:38;11.30;99.90
20398;DHT22;10358;49.590;11.030;2023-04-24T03:19:03;11.30;99.90
20398;DHT22;10358;49.590;11.030;2023-04-24T03:21:29;11.30;99.90
20398;DHT22;10358;49.590;11.030;2023-04-24T03:23:55;11.20;99.90
20398;DHT22;10358;49.590;11.030;2023-04-24T03:26:20;11.20;99.90
20398;DHT22;10358;49.590;11.030;2023-04-24T03:28:46;11.10;99.90
20398;DHT22;10358;49.590;11.030;2023-04-24T03:31:11;11.10;99.90
20398;DHT22;10358;49.590;11.030;2023-04-24T03:33:37;11.10;99.90
20398;DHT22;10358;49.590;11.030;2023-04-24T03:36:02;11.10;99.90
20398;DHT22;10358;49.590;11.030;2023-04-24T03:38:28;11.10;99.90
20398;DHT22;10358;49.590;11.030;2023-04-24T03:40:54;11.10;99.90
20398;DHT22;10358;49.590;11.030;2023-04-24T03:43:19;11.10;99.90
20398;DHT22;10358;49.590;11.030;2023-04-24T03:45:45;11.10;99.90
20398;DHT22;10358;49.590;11.030;2023-04-24T03:48:11;11.10;99.90
20398;DHT22;10358;49.590;11.030;2023-04-24T03:50:36;11.10;99.90
20398;DHT22;10358;49.590;11.030;2023-04-24T03:53:02;11.00;99.90
20398;DHT22;10358;49.590;11.030;2023-04-24T03:55:27;11.00;99.90
20398;DHT22;10358;49.590;11.030;2023-04-24T03:57:53;11.00;99.90
20398;DHT22;10358;49.590;11.030;2023-04-24T04:00:18;11.00;99.90
20398;DHT22;10358;49.590;11.030;2023-04-24T04:02:44;11.00;99.90
20398;DHT22;10358;49.590;11.030;2023-04-24T04:05:10;11.00;99.90
20398;DHT22;10358;49.590;11.030;2023-04-24T04:07:35;10.90;99.90
20398;DHT22;10358;49.590;11.030;2023-04-24T04:10:01;10.90;99.90
20398;DHT22;10358;49.590;11.030;2023-04-24T04:12:26;10.90;99.90
20398;DHT22;10358;49.590;11.030;2023-04-24T04:14:52;10.90;99.90
20398;DHT22;10358;49.590;11.030;2023-04-24T04:17:17;10.90;99.90
20398;DHT22;10358;49.590;11.030;2023-04-24T04:19:43;10.80;99.90
20398;DHT22;10358;49.590;11.030;2023-04-24T04:22:08;10.80;99.90
20398;DHT22;10358;49.590;11.030;2023-04-24T04:24:34;10.70;99.90
20398;DHT22;10358;49.590;11.030;2023-04-24T04:27:06;10.80;99.90
20398;DHT22;10358;49.590;11.030;2023-04-24T04:29:32;10.80;99.90
20398;DHT22;10358;49.590;11.030;2023-04-24T04:31:58;10.80;99.90
20398;DHT22;10358;49.590;11.030;2023-04-24T04:34:24;10.80;99.90
20398;DHT22;10358;49.590;11.030;2023-04-24T04:36:49;10.80;99.90
20398;DHT22;10358;49.590;11.030;2023-04-24T04:39:15;10.70;99.90
20398;DHT22;10358;49.590;11.030;2023-04-24T04:41:42;10.70;99.90
20398;DHT22;10358;49.590;11.030;2023-04-24T04:44:07;10.70;99.90
20398;DHT22;10358;49.590;11.030;2023-04-24T04:46:34;10.80;99.90
20398;DHT22;10358;49.590;11.030;2023-04-24T04:49:00;10.80;99.90
20398;DHT22;10358;49.590;11.030;2023-04-24T04:51:26;10.70;99.90
20398;DHT22;10358;49.590;11.030;2023-04-24T04:53:52;10.80;99.90
20398;DHT22;10358;49.590;11.030;2023-04-24T04:56:18;10.80;99.90
20398;DHT22;10358;49.590;11.030;2023-04-24T04:58:44;10.80;99.90
20398;DHT22;10358;49.590;11.030;2023-04-24T05:01:09;10.90;99.90
20398;DHT22;10358;49.590;11.030;2023-04-24T05:03:35;11.00;99.90
20398;DHT22;10358;49.590;11.030;2023-04-24T05:06:01;11.10;99.90
20398;DHT22;10358;49.590;11.030;2023-04-24T05:08:27;11.30;99.90
20398;DHT22;10358;49.590;11.030;2023-04-24T05:10:53;11.40;99.90
20398;DHT22;10358;49.590;11.030;2023-04-24T05:13:19;11.40;99.90
20398;DHT22;10358;49.590;11.030;2023-04-24T05:15:45;11.50;99.90
20398;DHT22;10358;49.590;11.030;2023-04-24T05:18:10;11.60;99.90
20398;DHT22;10358;49.590;11.030;2023-04-24T05:20:36;11.60;99.90
20398;DHT22;10358;49.590;11.030;2023-04-24T05:23:01;11.70;99.90
20398;DHT22;10358;49.590;11.030;2023-04-24T05:25:27;11.70;99.90
20398;DHT22;10358;49.590;11.030;2023-04-24T05:27:52;11.70;99.90
20398;DHT22;10358;49.590;11.030;2023-04-24T05:30:19;11.70;99.90
20398;DHT22;10358;49.590;11.030;2023-04-24T05:32:45;11.80;99.90
20398;DHT22;10358;49.590;11.030;2023-04-24T05:35:10;11.70;99.90
20398;DHT22;10358;49.590;11.030;2023-04-24T05:37:36;11.60;99.90
20398;DHT22;10358;49.590;11.030;2023-04-24T05:40:01;11.60;99.90
20398;DHT22;10358;49.590;11.030;2023-04-24T05:42:29;11.60;99.90
20398;DHT22;10358;49.590;11.030;2023-04-24T05:44:55;11.70;99.90
20398;DHT22;10358;49.590;11.030;2023-04-24T05:47:20;11.70;99.90
20398;DHT22;10358;49.590;11.030;2023-04-24T05:49:47;11.70;99.90
20398;DHT22;10358;49.590;11.030;2023-04-24T05:52:13;11.70;99.90
20398;DHT22;10358;49.590;11.030;2023-04-24T05:54:38;11.80;99.90
20398;DHT22;10358;49.590;11.030;2023-04-24T05:57:04;11.80;99.90
20398;DHT22;10358;49.590;11.030;2023-04-24T05:59:33;11.90;99.90
20398;DHT22;10358;49.590;11.030;2023-04-24T06:01:59;12.00;99.90
20398;DHT22;10358;49.590;11.030;2023-04-24T06:04:25;12.00;99.90
20398;DHT22;10358;49.590;11.030;2023-04-24T06:06:51;12.00;99.90
20398;DHT22;10358;49.590;11.030;2023-04-24T06:09:21;12.10;99.90
20398;DHT22;10358;49.590;11.030;2023-04-24T06:11:47;12.10;99.90
20398;DHT22;10358;49.590;11.030;2023-04-24T06:14:12;12.20;99.90
20398;DHT22;10358;49.590;11.030;2023-04-24T06:16:40;12.30;99.90
20398;DHT22;10358;49.590;11.030;2023-04-24T06:19:05;12.30;99.90
20398;DHT22;10358;49.590;11.030;2023-04-24T06:21:31;12.30;99.90
20398;DHT22;10358;49.590;11.030;2023-04-24T06:23:56;12.20;99.90
20398;DHT22;10358;49.590;11.030;2023-04-24T06:26:23;12.20;99.90
20398;DHT22;10358;49.590;11.030;2023-04-24T06:28:50;12.20;99.90
20398;DHT22;10358;49.590;11.030;2023-04-24T06:31:16;12.10;99.90
20398;DHT22;10358;49.590;11.030;2023-04-24T06:33:43;12.10;99.90
20398;DHT22;10358;49.590;11.030;2023-04-24T06:36:08;12.00;99.90
20398;DHT22;10358;49.590;11.030;2023-04-24T06:38:34;12.00;99.90
20398;DHT22;10358;49.590;11.030;2023-04-24T06:40:59;12.00;99.90
20398;DHT22;10358;49.590;11.030;2023-04-24T06:43:25;11.90;99.90
20398;DHT22;10358;49.590;11.030;2023-04-24T06:45:51;11.80;99.90
20398;DHT22;10358;49.590;11.030;2023-04-24T06:48:16;11.90;99.90
20398;DHT22;10358;49.590;11.030;2023-04-24T06:50:42;11.90;99.90
20398;DHT22;10358;49.590;11.030;2023-04-24T06:53:07;11.90;99.90
20398;DHT22;10358;49.590;11.030;2023-04-24T06:55:35;11.90;99.90
20398;DHT22;10358;49.590;11.030;2023-04-24T06:58:01;12.00;99.90
20398;DHT22;10358;49.590;11.030;2023-04-24T07:00:27;12.00;99.90
20398;DHT22;10358;49.590;11.030;2023-04-24T07:02:52;12.00;99.90
20398;DHT22;10358;49.590;11.030;2023-04-24T07:05:18;12.00;99.90
20398;DHT22;10358;49.590;11.030;2023-04-24T07:07:46;12.10;99.90
20398;DHT22;10358;49.590;11.030;2023-04-24T07:10:12;12.10;99.90
20398;DHT22;10358;49.590;11.030;2023-04-24T07:12:38;12.10;99.90
20398;DHT22;10358;49.590;11.030;2023-04-24T07:15:05;12.10;99.90
20398;DHT22;10358;49.590;11.030;2023-04-24T07:17:34;12.20;99.90
20398;DHT22;10358;49.590;11.030;2023-04-24T07:20:00;12.30;99.90
20398;DHT22;10358;49.590;11.030;2023-04-24T07:22:26;12.30;99.90
20398;DHT22;10358;49.590;11.030;2023-04-24T07:24:51;12.40;99.90
20398;DHT22;10358;49.590;11.030;2023-04-24T07:27:17;12.50;99.90
20398;DHT22;10358;49.590;11.030;2023-04-24T07:29:42;12.60;99.90
20398;DHT22;10358;49.590;11.030;2023-04-24T07:32:08;12.60;99.90
20398;DHT22;10358;49.590;11.030;2023-04-24T07:34:34;12.60;99.90
20398;DHT22;10358;49.590;11.030;2023-04-24T07:37:00;12.50;99.90
20398;DHT22;10358;49.590;11.030;2023-04-24T07:39:26;12.30;99.90
20398;DHT22;10358;49.590;11.030;2023-04-24T07:41:51;12.30;99.90
20398;DHT22;10358;49.590;11.030;2023-04-24T07:44:17;12.20;99.90
20398;DHT22;10358;49.590;11.030;2023-04-24T07:46:43;12.20;99.90
20398;DHT22;10358;49.590;11.030;2023-04-24T07:49:08;12.10;99.90
20398;DHT22;10358;49.590;11.030;2023-04-24T07:51:34;12.20;99.90
20398;DHT22;10358;49.590;11.030;2023-04-24T07:54:04;12.20;99.90
20398;DHT22;10358;49.590;11.030;2023-04-24T07:56:31;12.30;99.90
20398;DHT22;10358;49.590;11.030;2023-04-24T07:58:57;12.30;99.90
20398;DHT22;10358;49.590;11.030;2023-04-24T08:01:22;12.50;99.90
20398;DHT22;10358;49.590;11.030;2023-04-24T08:03:48;12.70;99.90
20398;DHT22;10358;49.590;11.030;2023-04-24T08:06:13;12.90;99.90
20398;DHT22;10358;49.590;11.030;2023-04-24T08:08:39;13.10;99.90
20398;DHT22;10358;49.590;11.030;2023-04-24T08:11:05;13.20;99.90
20398;DHT22;10358;49.590;11.030;2023-04-24T08:13:30;13.40;99.90
20398;DHT22;10358;49.590;11.030;2023-04-24T08:15:56;13.40;99.90
20398;DHT22;10358;49.590;11.030;2023-04-24T08:18:22;13.50;99.90
20398;DHT22;10358;49.590;11.030;2023-04-24T08:20:47;13.50;99.90
20398;DHT22;10358;49.590;11.030;2023-04-24T08:23:13;13.50;99.90
20398;DHT22;10358;49.590;11.030;2023-04-24T08:25:39;13.40;99.90
20398;DHT22;10358;49.590;11.030;2023-04-24T08:28:06;13.30;99.90
20398;DHT22;10358;49.590;11.030;2023-04-24T08:30:32;13.20;99.90
20398;DHT22;10358;49.590;11.030;2023-04-24T08:32:58;13.20;99.90
20398;DHT22;10358;49.590;11.030;2023-04-24T08:35:23;13.10;99.90
20398;DHT22;10358;49.590;11.030;2023-04-24T08:37:49;13.00;99.90
20398;DHT22;10358;49.590;11.030;2023-04-24T08:40:16;13.00;99.90
20398;DHT22;10358;49.590;11.030;2023-04-24T08:42:44;12.90;99.90
20398;DHT22;10358;49.590;11.030;2023-04-24T08:45:12;13.00;99.90
20398;DHT22;10358;49.590;11.030;2023-04-24T08:47:39;12.90;99.90
20398;DHT22;10358;49.590;11.030;2023-04-24T08:50:05;12.80;99.90
20398;DHT22;10358;49.590;11.030;2023-04-24T08:52:33;12.90;99.90
20398;DHT22;10358;49.590;11.030;2023-04-24T08:55:00;12.90;99.90
20398;DHT22;10358;49.590;11.030;2023-04-24T08:57:27;13.00;99.90
20398;DHT22;10358;49.590;11.030;2023-04-24T08:59:53;12.80;99.90
20398;DHT22;10358;49.590;11.030;2023-04-24T09:02:19;12.80;99.90
20398;DHT22;10358;49.590;11.030;2023-04-24T09:04:47;12.70;99.90
20398;DHT22;10358;49.590;11.030;2023-04-24T09:07:14;12.60;99.90
20398;DHT22;10358;49.590;11.030;2023-04-24T09:09:42;12.70;99.90
20398;DHT22;10358;49.590;11.030;2023-04-24T09:12:07;12.60;99.90
20398;DHT22;10358;49.590;11.030;2023-04-24T09:14:36;12.80;99.90
20398;DHT22;10358;49.590;11.030;2023-04-24T09:17:05;13.00;99.90
20398;DHT22;10358;49.590;11.030;2023-04-24T09:19:31;13.10;99.90
20398;DHT22;10358;49.590;11.030;2023-04-24T09:21:57;13.20;99.90
20398;DHT22;10358;49.590;11.030;2023-04-24T09:24:22;13.30;99.90
20398;DHT22;10358;49.590;11.030;2023-04-24T09:26:49;13.70;99.90
20398;DHT22;10358;49.590;11.030;2023-04-24T09:29:21;13.70;99.90
20398;DHT22;10358;49.590;11.030;2023-04-24T09:31:46;13.70;99.90
20398;DHT22;10358;49.590;11.030;2023-04-24T09:34:12;13.70;99.90
20398;DHT22;10358;49.590;11.030;2023-04-24T09:36:40;13.60;99.90
20398;DHT22;10358;49.590;11.030;2023-04-24T09:39:08;13.50;99.90
20398;DHT22;10358;49.590;11.030;2023-04-24T09:41:47;13.50;99.90
20398;DHT22;10358;49.590;11.030;2023-04-24T09:44:15;13.60;99.90
20398;DHT22;10358;49.590;11.030;2023-04-24T09:46:45;13.50;99.90
20398;DHT22;10358;49.590;11.030;2023-04-24T09:49:15;13.50;99.90
20398;DHT22;10358;49.590;11.030;2023-04-24T09:51:41;13.50;99.90
20398;DHT22;10358;49.590;11.030;2023-04-24T09:54:19;13.30;99.90
20398;DHT22;10358;49.590;11.030;2023-04-24T09:56:50;13.20;99.90
20398;DHT22;10358;49.590;11.030;2023-04-24T09:59:18;13.00;99.90
20398;DHT22;10358;49.590;11.030;2023-04-24T10:01:44;13.00;99.90
20398;DHT22;10358;49.590;11.030;2023-04-24T10:04:21;12.80;99.90
20398;DHT22;10358;49.590;11.030;2023-04-24T10:06:48;12.80;99.90
20398;DHT22;10358;49.590;11.030;2023-04-24T10:09:15;12.80;99.90
20398;DHT22;10358;49.590;11.030;2023-04-24T10:11:42;13.00;99.90
20398;DHT22;10358;49.590;11.030;2023-04-24T10:14:13;13.20;99.90
20398;DHT22;10358;49.590;11.030;2023-04-24T10:16:40;13.50;99.90
20398;DHT22;10358;49.590;11.030;2023-04-24T10:19:06;13.60;99.90
20398;DHT22;10358;49.590;11.030;2023-04-24T10:21:32;13.70;99.90
20398;DHT22;10358;49.590;11.030;2023-04-24T10:23:57;13.60;99.90
20398;DHT22;10358;49.590;11.030;2023-04-24T10:26:26;13.40;99.90
20398;DHT22;10358;49.590;11.030;2023-04-24T10:28:53;13.10;99.90
20398;DHT22;10358;49.590;11.030;2023-04-24T10:31:19;13.10;99.90
20398;DHT22;10358;49.590;11.030;2023-04-24T10:33:46;12.90;99.90
20398;DHT22;10358;49.590;11.030;2023-04-24T10:36:12;12.60;99.90
20398;DHT22;10358;49.590;11.030;2023-04-24T10:38:41;12.60;99.90
20398;DHT22;10358;49.590;11.030;2023-04-24T10:41:09;12.50;99.90
20398;DHT22;10358;49.590;11.030;2023-04-24T10:43:36;12.40;99.90
20398;DHT22;10358;49.590;11.030;2023-04-24T10:46:03;12.40;99.90
20398;DHT22;10358;49.590;11.030;2023-04-24T10:48:30;12.40;99.90
20398;DHT22;10358;49.590;11.030;2023-04-24T10:50:55;12.50;99.90
20398;DHT22;10358;49.590;11.030;2023-04-24T10:53:27;12.40;99.90
20398;DHT22;10358;49.590;11.030;2023-04-24T10:56:04;12.50;99.90
20398;DHT22;10358;49.590;11.030;2023-04-24T11:01:26;12.80;99.90
20398;DHT22;10358;49.590;11.030;2023-04-24T11:03:58;13.00;99.90
20398;DHT22;10358;49.590;11.030;2023-04-24T11:06:34;13.00;99.90
20398;DHT22;10358;49.590;11.030;2023-04-24T11:09:05;12.70;99.90
20398;DHT22;10358;49.590;11.030;2023-04-24T11:11:32;12.60;99.90
20398;DHT22;10358;49.590;11.030;2023-04-24T11:19:01;13.00;99.90
20398;DHT22;10358;49.590;11.030;2023-04-24T11:21:32;13.20;99.90
20398;DHT22;10358;49.590;11.030;2023-04-24T11:23:58;13.40;99.90
20398;DHT22;10358;49.590;11.030;2023-04-24T11:26:24;13.50;99.90
20398;DHT22;10358;49.590;11.030;2023-04-24T11:29:06;13.60;99.90
20398;DHT22;10358;49.590;11.030;2023-04-24T11:31:40;13.60;99.90
20398;DHT22;10358;49.590;11.030;2023-04-24T11:34:11;13.60;99.90
20398;DHT22;10358;49.590;11.030;2023-04-24T11:36:38;13.50;99.60
20398;DHT22;10358;49.590;11.030;2023-04-24T11:39:04;13.40;99.90
20398;DHT22;10358;49.590;11.030;2023-04-24T11:41:30;13.30;99.30
20398;DHT22;10358;49.590;11.030;2023-04-24T11:43:56;13.30;99.90
20398;DHT22;10358;49.590;11.030;2023-04-24T11:46:22;13.10;98.00
20398;DHT22;10358;49.590;11.030;2023-04-24T11:48:48;12.90;98.00
20398;DHT22;10358;49.590;11.030;2023-04-24T11:51:14;12.80;98.60
20398;DHT22;10358;49.590;11.030;2023-04-24T11:53:40;12.70;98.50
20398;DHT22;10358;49.590;11.030;2023-04-24T11:56:06;12.70;96.60
20398;DHT22;10358;49.590;11.030;2023-04-24T11:58:38;12.70;96.40
20398;DHT22;10358;49.590;11.030;2023-04-24T12:01:04;12.90;96.70
20398;DHT22;10358;49.590;11.030;2023-04-24T12:03:30;13.10;96.80
20398;DHT22;10358;49.590;11.030;2023-04-24T12:06:07;13.20;97.30
20398;DHT22;10358;49.590;11.030;2023-04-24T12:08:33;13.30;98.00
20398;DHT22;10358;49.590;11.030;2023-04-24T12:11:01;13.40;98.10
20398;DHT22;10358;49.590;11.030;2023-04-24T12:13:26;13.40;99.00
20398;DHT22;10358;49.590;11.030;2023-04-24T12:15:52;13.40;99.50
20398;DHT22;10358;49.590;11.030;2023-04-24T12:18:18;13.60;99.70
20398;DHT22;10358;49.590;11.030;2023-04-24T12:20:43;13.70;99.70
20398;DHT22;10358;49.590;11.030;2023-04-24T12:23:09;13.80;99.80
20398;DHT22;10358;49.590;11.030;2023-04-24T12:25:34;13.90;99.60
20398;DHT22;10358;49.590;11.030;2023-04-24T12:28:10;13.90;99.10
20398;DHT22;10358;49.590;11.030;2023-04-24T12:30:48;13.70;99.40
20398;DHT22;10358;49.590;11.030;2023-04-24T12:33:23;13.60;98.10
20398;DHT22;10358;49.590;11.030;2023-04-24T12:35:51;13.40;97.30
20398;DHT22;10358;49.590;11.030;2023-04-24T12:38:22;13.30;98.00
20398;DHT22;10358;49.590;11.030;2023-04-24T12:40:48;13.30;98.20
20398;DHT22;10358;49.590;11.030;2023-04-24T12:43:14;13.30;98.80
20398;DHT22;10358;49.590;11.030;2023-04-24T12:45:40;13.20;99.30
20398;DHT22;10358;49.590;11.030;2023-04-24T12:48:06;13.10;99.40
20398;DHT22;10358;49.590;11.030;2023-04-24T12:50:31;13.00;99.70
20398;DHT22;10358;49.590;11.030;2023-04-24T12:52:57;12.80;99.90
20398;DHT22;10358;49.590;11.030;2023-04-24T12:55:23;12.70;99.90
20398;DHT22;10358;49.590;11.030;2023-04-24T12:57:48;12.60;99.90
20398;DHT22;10358;49.590;11.030;2023-04-24T13:00:14;12.60;99.90
20398;DHT22;10358;49.590;11.030;2023-04-24T13:02:40;12.60;99.90
20398;DHT22;10358;49.590;11.030;2023-04-24T13:05:06;12.60;99.90
20398;DHT22;10358;49.590;11.030;2023-04-24T13:07:32;12.60;99.90
20398;DHT22;10358;49.590;11.030;2023-04-24T13:09:58;12.60;99.90
20398;DHT22;10358;49.590;11.030;2023-04-24T13:12:24;12.80;99.90
20398;DHT22;10358;49.590;11.030;2023-04-24T13:14:50;13.10;99.50
20398;DHT22;10358;49.590;11.030;2023-04-24T13:17:16;13.30;98.80
20398;DHT22;10358;49.590;11.030;2023-04-24T13:19:43;13.40;98.70
20398;DHT22;10358;49.590;11.030;2023-04-24T13:22:10;13.40;98.60
20398;DHT22;10358;49.590;11.030;2023-04-24T13:24:36;13.30;98.10
20398;DHT22;10358;49.590;11.030;2023-04-24T13:27:03;13.20;97.70
20398;DHT22;10358;49.590;11.030;2023-04-24T13:29:28;13.00;98.30
20398;DHT22;10358;49.590;11.030;2023-04-24T13:31:54;12.90;98.90
20398;DHT22;10358;49.590;11.030;2023-04-24T13:34:24;12.90;99.30
20398;DHT22;10358;49.590;11.030;2023-04-24T13:36:53;12.80;98.60
20398;DHT22;10358;49.590;11.030;2023-04-24T13:39:20;12.80;98.50
20398;DHT22;10358;49.590;11.030;2023-04-24T13:41:45;12.80;98.50
20398;DHT22;10358;49.590;11.030;2023-04-24T13:44:17;12.90;98.80
20398;DHT22;10358;49.590;11.030;2023-04-24T13:46:44;13.00;98.50
20398;DHT22;10358;49.590;11.030;2023-04-24T13:49:10;13.40;98.60
20398;DHT22;10358;49.590;11.030;2023-04-24T13:51:36;13.90;97.70
20398;DHT22;10358;49.590;11.030;2023-04-24T13:54:02;14.20;97.10
20398;DHT22;10358;49.590;11.030;2023-04-24T13:56:28;14.50;96.20
20398;DHT22;10358;49.590;11.030;2023-04-24T13:58:53;14.70;96.00
20398;DHT22;10358;49.590;11.030;2023-04-24T14:01:20;14.90;95.70
20398;DHT22;10358;49.590;11.030;2023-04-24T14:03:49;15.20;93.90
20398;DHT22;10358;49.590;11.030;2023-04-24T14:06:15;15.50;92.60
20398;DHT22;10358;49.590;11.030;2023-04-24T14:08:40;15.80;91.10
20398;DHT22;10358;49.590;11.030;2023-04-24T14:11:06;16.00;89.80
20398;DHT22;10358;49.590;11.030;2023-04-24T14:13:32;15.70;90.20
20398;DHT22;10358;49.590;11.030;2023-04-24T14:15:58;15.70;90.30
20398;DHT22;10358;49.590;11.030;2023-04-24T14:18:23;15.90;90.20
20398;DHT22;10358;49.590;11.030;2023-04-24T14:20:49;16.10;90.40
20398;DHT22;10358;49.590;11.030;2023-04-24T14:23:15;16.30;90.80
20398;DHT22;10358;49.590;11.030;2023-04-24T14:25:41;16.40;90.40
20398;DHT22;10358;49.590;11.030;2023-04-24T14:28:06;16.40;89.30
20398;DHT22;10358;49.590;11.030;2023-04-24T14:30:32;16.00;88.60
20398;DHT22;10358;49.590;11.030;2023-04-24T14:32:58;15.80;88.90
20398;DHT22;10358;49.590;11.030;2023-04-24T14:35:23;15.40;89.20
20398;DHT22;10358;49.590;11.030;2023-04-24T14:37:49;15.00;90.20
20398;DHT22;10358;49.590;11.030;2023-04-24T14:40:15;14.60;90.70
20398;DHT22;10358;49.590;11.030;2023-04-24T14:42:40;14.20;91.80
20398;DHT22;10358;49.590;11.030;2023-04-24T14:45:06;13.90;93.10
20398;DHT22;10358;49.590;11.030;2023-04-24T14:47:33;13.70;94.80
20398;DHT22;10358;49.590;11.030;2023-04-24T14:49:58;13.60;94.00
20398;DHT22;10358;49.590;11.030;2023-04-24T14:52:24;13.40;93.60
20398;DHT22;10358;49.590;11.030;2023-04-24T14:54:50;13.40;93.40
20398;DHT22;10358;49.590;11.030;2023-04-24T14:57:15;13.50;92.90
20398;DHT22;10358;49.590;11.030;2023-04-24T14:59:41;13.50;92.40
20398;DHT22;10358;49.590;11.030;2023-04-24T15:02:06;13.70;92.40
20398;DHT22;10358;49.590;11.030;2023-04-24T15:04:32;14.10;92.10
20398;DHT22;10358;49.590;11.030;2023-04-24T15:06:58;14.60;91.10
20398;DHT22;10358;49.590;11.030;2023-04-24T15:09:24;14.80;90.80
20398;DHT22;10358;49.590;11.030;2023-04-24T15:11:50;15.30;90.60
20398;DHT22;10358;49.590;11.030;2023-04-24T15:14:17;16.00;90.10
20398;DHT22;10358;49.590;11.030;2023-04-24T15:16:43;16.60;85.50
20398;DHT22;10358;49.590;11.030;2023-04-24T15:19:09;16.60;84.70